Time;durP1;ratioP1;P1;durP2;ratioP2;P2;SDS_P1;SDS_P2;PMS_P1;PMS_P2;Temp;Humidity;BMP_temperature;BMP_pressure;BME280_temperature;BME280_humidity;BME280_pressure;Samples;Min_cycle;Max_cycle;Signal;HPM_P1;HPM_P2
2021/09/10 00:01:25;;;;;;;6.17;4.57;;;24.20;70.80;;;;;;5099173;28;20435;-91
2021/09/10 00:03:53;;;;;;;4.83;4.23;;;24.10;70.80;;;;;;5099482;28;20436;-91
2021/09/10 00:06:19;;;;;;;5.40;4.20;;;24.10;70.90;;;;;;5100003;28;20574;-91
2021/09/10 00:08:46;;;;;;;5.30;4.70;;;24.10;71.20;;;;;;5099693;28;20454;-91
2021/09/10 00:11:13;;;;;;;6.37;4.70;;;24.10;71.20;;;;;;5098991;28;20447;-91
2021/09/10 00:13:40;;;;;;;4.77;4.10;;;24.00;71.20;;;;;;5098853;28;20459;-92
2021/09/10 00:16:08;;;;;;;6.67;4.33;;;24.10;71.50;;;;;;5098123;28;20473;-91
2021/09/10 00:18:34;;;;;;;7.30;4.40;;;24.00;71.50;;;;;;5098752;28;20432;-89
2021/09/10 00:21:01;;;;;;;6.60;4.33;;;24.00;71.60;;;;;;5098061;28;20839;-90
2021/09/10 00:23:28;;;;;;;7.07;4.50;;;24.00;71.80;;;;;;5098025;28;20463;-89
2021/09/10 00:25:55;;;;;;;6.83;4.50;;;24.00;71.60;;;;;;5098142;28;20570;-90
2021/09/10 00:28:23;;;;;;;5.13;4.17;;;24.00;71.40;;;;;;5098588;28;20452;-92
2021/09/10 00:30:50;;;;;;;4.63;4.10;;;24.00;71.40;;;;;;5099525;28;20455;-92
2021/09/10 00:33:18;;;;;;;6.70;4.50;;;23.90;71.50;;;;;;5100241;28;20444;-93
2021/09/10 00:35:45;;;;;;;4.43;4.13;;;23.90;71.50;;;;;;5098157;28;20526;-92
2021/09/10 00:38:12;;;;;;;4.77;4.20;;;23.90;71.70;;;;;;5098838;28;20468;-92
2021/09/10 00:40:39;;;;;;;4.73;4.23;;;23.80;71.80;;;;;;5099154;28;20811;-91
2021/09/10 00:43:06;;;;;;;4.47;4.07;;;23.80;72.10;;;;;;5099031;28;20818;-91
2021/09/10 00:45:33;;;;;;;5.80;4.73;;;23.70;72.40;;;;;;5098403;28;20467;-92
2021/09/10 00:47:59;;;;;;;5.93;3.77;;;23.70;72.50;;;;;;5098118;28;20828;-91
2021/09/10 00:50:28;;;;;;;8.47;4.53;;;23.70;72.70;;;;;;5098159;28;20977;-92
2021/09/10 00:52:55;;;;;;;5.90;5.00;;;23.70;72.90;;;;;;5098305;28;20428;-91
2021/09/10 00:55:26;;;;;;;4.37;4.00;;;23.70;73.00;;;;;;5096946;28;20466;-91
2021/09/10 00:57:52;;;;;;;4.97;4.60;;;23.70;73.80;;;;;;5097513;28;20977;-90
2021/09/10 01:00:19;;;;;;;4.37;3.97;;;23.60;73.10;;;;;;5097233;28;20523;-90
2021/09/10 01:02:47;;;;;;;4.93;4.27;;;23.60;73.20;;;;;;5097255;28;20965;-90
2021/09/10 01:05:14;;;;;;;4.50;4.10;;;23.60;73.20;;;;;;5097393;28;20476;-89
2021/09/10 01:07:42;;;;;;;7.80;4.80;;;23.60;73.30;;;;;;5101633;28;20474;-89
2021/09/10 01:10:10;;;;;;;5.57;5.10;;;23.60;73.40;;;;;;5105034;28;20432;-89
2021/09/10 01:12:37;;;;;;;6.90;5.13;;;23.60;73.40;;;;;;5098212;28;20498;-89
2021/09/10 01:15:05;;;;;;;5.77;5.00;;;23.60;73.30;;;;;;5096641;28;20818;-90
2021/09/10 01:17:34;;;;;;;4.93;4.40;;;23.60;73.50;;;;;;5096240;28;20479;-89
2021/09/10 01:20:01;;;;;;;4.57;4.27;;;23.60;73.30;;;;;;5096894;28;20947;-90
2021/09/10 01:22:27;;;;;;;4.53;4.13;;;23.60;73.50;;;;;;5097060;28;20856;-89
2021/09/10 01:25:11;;;;;;;5.23;4.83;;;23.60;73.50;;;;;;5097496;28;20470;-89
2021/09/10 01:27:38;;;;;;;6.00;4.50;;;23.60;73.50;;;;;;5096531;28;20456;-86
2021/09/10 01:30:06;;;;;;;5.00;4.60;;;23.60;73.50;;;;;;5095947;28;20513;-86
2021/09/10 01:32:33;;;;;;;6.10;5.50;;;23.60;73.50;;;;;;5095934;28;20440;-86
2021/09/10 01:34:59;;;;;;;6.33;4.80;;;23.60;73.70;;;;;;5096135;28;20447;-86
2021/09/10 01:37:26;;;;;;;6.43;4.97;;;23.60;73.60;;;;;;5096006;28;20454;-86
2021/09/10 01:39:53;;;;;;;4.80;4.40;;;23.60;73.90;;;;;;5096083;28;20439;-86
2021/09/10 01:42:21;;;;;;;4.33;3.93;;;23.60;73.90;;;;;;5096267;28;20436;-85
2021/09/10 01:44:48;;;;;;;5.43;4.93;;;23.50;73.60;;;;;;5096011;28;20443;-86
2021/09/10 01:47:15;;;;;;;4.70;4.30;;;23.50;73.70;;;;;;5095950;28;20490;-86
2021/09/10 01:49:43;;;;;;;7.17;5.13;;;23.50;73.80;;;;;;5096083;28;20451;-86
2021/09/10 01:52:10;;;;;;;5.33;4.93;;;23.50;73.80;;;;;;5097050;28;20458;-85
2021/09/10 01:54:37;;;;;;;6.73;5.07;;;23.50;74.10;;;;;;5096652;28;20455;-85
2021/09/10 01:57:04;;;;;;;5.33;4.93;;;23.50;74.20;;;;;;5096497;28;20470;-85
2021/09/10 01:59:32;;;;;;;6.27;5.73;;;23.50;74.20;;;;;;5096155;28;20428;-85
2021/09/10 02:01:59;;;;;;;5.00;4.60;;;23.50;74.30;;;;;;5096208;28;20408;-85
2021/09/10 02:04:26;;;;;;;6.70;5.70;;;23.50;74.30;;;;;;5101709;28;20820;-84
2021/09/10 02:06:53;;;;;;;8.00;4.60;;;23.40;74.30;;;;;;5106162;28;20533;-85
2021/09/10 02:09:20;;;;;;;6.03;5.00;;;23.40;74.70;;;;;;5104149;28;20430;-84
2021/09/10 02:11:47;;;;;;;5.03;4.60;;;23.40;74.50;;;;;;5108774;28;20455;-84
2021/09/10 02:14:13;;;;;;;5.40;4.90;;;23.40;74.60;;;;;;5102665;28;20885;-85
2021/09/10 02:16:42;;;;;;;6.10;5.13;;;23.30;74.70;;;;;;5097277;28;20451;-85
2021/09/10 02:19:09;;;;;;;5.73;5.20;;;23.30;74.80;;;;;;5097059;28;21009;-85
2021/09/10 02:21:37;;;;;;;5.67;5.27;;;23.30;75.00;;;;;;5097043;28;20442;-85
2021/09/10 02:24:04;;;;;;;8.23;5.03;;;23.30;75.10;;;;;;5097446;28;20476;-85
2021/09/10 02:26:31;;;;;;;7.93;5.50;;;23.30;75.20;;;;;;5098476;28;20480;-85
2021/09/10 02:28:58;;;;;;;7.07;5.97;;;23.30;75.40;;;;;;5099458;28;20530;-85
2021/09/10 02:31:24;;;;;;;6.37;5.90;;;23.20;76.30;;;;;;5099577;28;20459;-85
2021/09/10 02:33:53;;;;;;;6.73;6.00;;;23.20;75.50;;;;;;5097565;28;20945;-85
2021/09/10 02:36:19;;;;;;;6.13;5.40;;;23.20;75.60;;;;;;5097305;28;20502;-85
2021/09/10 02:38:47;;;;;;;6.07;5.40;;;23.20;75.50;;;;;;5096294;28;20801;-85
2021/09/10 02:41:14;;;;;;;6.40;5.50;;;23.20;75.70;;;;;;5094385;28;20459;-86
2021/09/10 02:43:41;;;;;;;5.87;5.07;;;23.10;75.60;;;;;;5094110;28;20412;-85
2021/09/10 02:46:08;;;;;;;5.37;4.80;;;23.10;75.60;;;;;;5093845;28;20483;-87
2021/09/10 02:48:35;;;;;;;5.47;5.00;;;23.10;75.70;;;;;;5093823;28;20436;-86
2021/09/10 02:51:03;;;;;;;5.67;5.00;;;23.10;75.70;;;;;;5094303;28;20436;-85
2021/09/10 02:53:30;;;;;;;6.00;5.50;;;23.10;75.60;;;;;;5094672;28;20822;-85
2021/09/10 02:55:58;;;;;;;6.00;5.40;;;23.10;75.60;;;;;;5094369;28;20994;-88
2021/09/10 02:58:25;;;;;;;5.97;5.37;;;23.00;75.70;;;;;;5100667;28;20440;-84
2021/09/10 03:00:52;;;;;;;5.60;5.00;;;23.00;75.80;;;;;;5099949;28;20428;-85
2021/09/10 03:03:20;;;;;;;5.70;5.20;;;23.00;75.80;;;;;;5095473;28;20452;-86
2021/09/10 03:05:46;;;;;;;6.03;4.83;;;23.00;75.80;;;;;;5093859;28;20955;-86
2021/09/10 03:08:15;;;;;;;6.13;5.63;;;23.00;75.70;;;;;;5093398;28;20982;-86
2021/09/10 03:10:41;;;;;;;5.73;5.17;;;22.90;75.80;;;;;;5093486;28;20432;-86
2021/09/10 03:13:08;;;;;;;9.23;5.23;;;22.90;75.70;;;;;;5095713;28;20943;-84
2021/09/10 03:15:35;;;;;;;5.77;4.97;;;22.90;75.80;;;;;;5102990;28;20456;-84
2021/09/10 03:18:02;;;;;;;5.20;4.80;;;22.90;76.00;;;;;;5105916;28;20460;-88
2021/09/10 03:20:29;;;;;;;7.30;6.60;;;22.80;75.90;;;;;;5098893;28;20432;-87
2021/09/10 03:22:56;;;;;;;7.93;5.17;;;22.80;76.00;;;;;;5098783;28;20531;-86
2021/09/10 03:25:24;;;;;;;11.23;5.33;;;22.80;76.50;;;;;;5098990;28;20452;-87
2021/09/10 03:27:51;;;;;;;6.50;5.17;;;22.80;76.80;;;;;;5099058;28;20566;-87
2021/09/10 03:30:19;;;;;;;7.50;6.10;;;22.80;77.20;;;;;;5099211;28;20444;-88
2021/09/10 03:32:46;;;;;;;9.87;5.47;;;22.70;77.40;;;;;;5098993;28;20444;-88
2021/09/10 03:35:13;;;;;;;6.67;5.83;;;22.70;77.70;;;;;;5099675;28;20787;-88
2021/09/10 03:37:40;;;;;;;6.10;5.50;;;22.70;78.30;;;;;;5098907;28;20470;-87
2021/09/10 03:40:08;;;;;;;6.17;5.53;;;22.60;78.30;;;;;;5100632;28;20497;-89
2021/09/10 03:42:36;;;;;;;6.37;5.30;;;22.60;78.50;;;;;;5106602;28;20475;-89
2021/09/10 03:45:04;;;;;;;5.77;5.23;;;22.60;78.50;;;;;;5098075;28;20490;-87
2021/09/10 03:47:31;;;;;;;5.87;5.27;;;22.60;78.60;;;;;;5098932;28;20498;-90
2021/09/10 03:49:58;;;;;;;6.60;5.73;;;22.60;78.90;;;;;;5098092;28;20453;-90
2021/09/10 03:52:25;;;;;;;6.37;5.77;;;22.60;78.90;;;;;;5100396;28;20432;-90
2021/09/10 03:54:52;;;;;;;6.43;5.77;;;22.60;78.60;;;;;;5098307;28;20432;-90
2021/09/10 03:57:18;;;;;;;7.10;6.20;;;22.60;78.40;;;;;;5098806;28;20456;-90
2021/09/10 03:59:47;;;;;;;5.10;4.70;;;22.60;78.70;;;;;;5099035;28;20796;-91
2021/09/10 04:02:14;;;;;;;5.70;5.13;;;22.60;78.40;;;;;;5099566;28;20482;-88
2021/09/10 04:04:40;;;;;;;5.80;4.97;;;22.60;78.60;;;;;;5098900;28;20416;-91
2021/09/10 04:07:09;;;;;;;6.00;5.50;;;22.60;78.80;;;;;;5098290;28;20487;-91
2021/09/10 04:09:36;;;;;;;5.43;4.97;;;22.60;78.80;;;;;;5098348;28;20942;-91
2021/09/10 04:12:03;;;;;;;5.80;5.40;;;22.60;78.60;;;;;;5098552;28;20439;-92
2021/09/10 04:14:30;;;;;;;6.13;5.63;;;22.60;78.40;;;;;;5098624;28;20524;-92
2021/09/10 04:16:58;;;;;;;6.93;6.33;;;22.60;78.40;;;;;;5098312;28;20462;-89
2021/09/10 04:19:25;;;;;;;5.77;5.17;;;22.60;78.20;;;;;;5098243;28;20443;-89
2021/09/10 04:21:52;;;;;;;6.53;5.10;;;22.60;78.30;;;;;;5098005;28;20458;-88
2021/09/10 04:24:18;;;;;;;7.23;5.43;;;22.60;78.30;;;;;;5097591;28;20455;-88
2021/09/10 04:26:45;;;;;;;5.37;4.87;;;22.60;78.10;;;;;;5097007;28;20491;-92
2021/09/10 04:29:19;;;;;;;6.70;5.37;;;22.60;78.00;;;;;;5098284;28;20448;-92
2021/09/10 04:31:46;;;;;;;5.73;5.20;;;22.50;77.90;;;;;;5101657;28;20412;-92
2021/09/10 04:34:16;;;;;;;5.80;5.30;;;22.50;77.70;;;;;;5101685;28;20436;-93
2021/09/10 04:36:42;;;;;;;5.90;5.40;;;22.50;78.60;;;;;;5099437;28;20509;-92
2021/09/10 04:39:09;;;;;;;6.10;4.73;;;22.50;78.50;;;;;;5100164;28;20454;-92
2021/09/10 04:41:36;;;;;;;5.53;5.13;;;22.40;77.60;;;;;;5100074;28;20436;-92
2021/09/10 04:44:03;;;;;;;6.27;5.77;;;22.40;77.50;;;;;;5100802;28;20927;-92
2021/09/10 04:46:30;;;;;;;6.60;6.00;;;22.30;77.60;;;;;;5102648;28;20570;-92
2021/09/10 04:48:57;;;;;;;5.70;5.17;;;22.30;77.80;;;;;;5104377;28;20538;-92
2021/09/10 04:51:28;;;;;;;5.83;5.30;;;22.30;77.80;;;;;;5108001;28;20461;-92
2021/09/10 04:53:56;;;;;;;6.10;5.50;;;22.30;77.80;;;;;;5106403;28;20490;-92
2021/09/10 04:56:23;;;;;;;6.60;6.00;;;22.30;77.70;;;;;;5096244;28;20472;-87
2021/09/10 04:58:50;;;;;;;7.23;5.73;;;22.20;77.60;;;;;;5097165;28;20461;-87
2021/09/10 05:01:17;;;;;;;6.27;5.30;;;22.20;77.70;;;;;;5097146;28;20807;-86
2021/09/10 05:03:43;;;;;;;6.93;6.20;;;22.20;77.60;;;;;;5096159;28;20432;-86
2021/09/10 05:06:10;;;;;;;6.03;5.40;;;22.20;77.80;;;;;;5096321;28;21006;-87
2021/09/10 05:08:41;;;;;;;7.30;5.87;;;22.20;78.30;;;;;;5096061;28;20439;-87
2021/09/10 05:11:08;;;;;;;6.70;6.10;;;22.20;78.40;;;;;;5096174;28;20440;-86
2021/09/10 05:13:35;;;;;;;6.23;5.63;;;22.20;78.90;;;;;;5097006;28;20435;-85
2021/09/10 05:16:05;;;;;;;6.70;5.80;;;22.20;79.10;;;;;;5096376;28;20439;-87
2021/09/10 05:18:32;;;;;;;5.93;5.20;;;22.20;79.50;;;;;;5096038;28;20451;-86
2021/09/10 05:20:59;;;;;;;6.67;6.07;;;22.20;79.60;;;;;;5098813;28;20452;-85
2021/09/10 05:23:26;;;;;;;6.00;5.47;;;22.20;79.80;;;;;;5101189;28;20460;-80
2021/09/10 05:25:55;;;;;;;6.90;5.70;;;22.20;79.70;;;;;;5099912;28;20831;-82
2021/09/10 05:28:21;;;;;;;10.57;4.97;;;22.30;79.80;;;;;;5099194;28;20467;-82
2021/09/10 05:30:48;;;;;;;10.27;7.00;;;22.30;79.70;;;;;;5099105;28;21011;-81
2021/09/10 05:33:15;;;;;;;7.20;6.40;;;22.30;79.50;;;;;;5100108;28;20501;-82
2021/09/10 05:35:42;;;;;;;7.33;6.27;;;22.30;79.50;;;;;;5098953;28;20451;-81
2021/09/10 05:38:09;;;;;;;8.53;6.40;;;22.30;79.50;;;;;;5097966;28;20452;-81
2021/09/10 05:40:36;;;;;;;21.60;9.70;;;22.30;79.60;;;;;;5100308;28;20438;-81
2021/09/10 05:43:04;;;;;;;11.53;8.03;;;22.40;79.70;;;;;;5099008;28;20452;-81
2021/09/10 05:45:31;;;;;;;8.27;6.93;;;22.40;79.50;;;;;;5098687;28;20452;-82
2021/09/10 05:47:58;;;;;;;8.63;6.90;;;22.40;79.50;;;;;;5098493;28;20492;-81
2021/09/10 05:50:28;;;;;;;6.20;5.60;;;22.50;79.50;;;;;;5099044;28;20907;-81
2021/09/10 05:52:54;;;;;;;6.07;5.57;;;22.60;79.40;;;;;;5099411;28;20450;-81
2021/09/10 05:55:21;;;;;;;7.47;6.00;;;22.60;79.40;;;;;;5098839;28;20973;-81
2021/09/10 05:57:48;;;;;;;6.07;5.47;;;22.70;79.30;;;;;;5098247;28;20456;-81
2021/09/10 06:00:16;;;;;;;5.63;4.83;;;22.80;79.30;;;;;;5097229;28;20432;-80
2021/09/10 06:02:43;;;;;;;6.33;4.73;;;22.90;78.80;;;;;;5098217;28;20447;-80
2021/09/10 06:05:11;;;;;;;4.80;4.40;;;23.00;78.40;;;;;;5098479;28;20451;-80
2021/09/10 06:07:37;;;;;;;6.10;4.60;;;23.10;78.00;;;;;;5097380;28;20483;-81
2021/09/10 06:10:04;;;;;;;6.80;4.87;;;23.20;77.60;;;;;;5097358;28;20447;-79
2021/09/10 06:12:31;;;;;;;8.00;4.77;;;23.30;76.70;;;;;;5098526;28;20451;-82
2021/09/10 06:14:58;;;;;;;8.23;5.60;;;23.50;76.20;;;;;;5097404;28;20436;-81
2021/09/10 06:17:26;;;;;;;5.07;4.63;;;23.50;76.10;;;;;;5096832;28;20456;-81
2021/09/10 06:19:53;;;;;;;10.00;4.73;;;23.60;76.00;;;;;;5096965;28;20436;-80
2021/09/10 06:22:20;;;;;;;6.47;5.43;;;23.70;75.10;;;;;;5097517;28;20455;-80
2021/09/10 06:24:46;;;;;;;5.93;5.33;;;23.70;74.90;;;;;;5097326;28;20486;-82
2021/09/10 06:27:13;;;;;;;5.53;5.03;;;23.80;74.90;;;;;;5096637;28;20483;-79
2021/09/10 06:29:40;;;;;;;5.97;5.10;;;23.90;74.90;;;;;;5097495;28;20454;-85
2021/09/10 06:32:07;;;;;;;6.63;4.60;;;23.90;74.70;;;;;;5100888;28;20938;-84
2021/09/10 06:34:35;;;;;;;5.90;5.40;;;24.00;74.20;;;;;;5100068;28;20943;-85
2021/09/10 06:37:02;;;;;;;5.67;4.63;;;24.00;73.80;;;;;;5102678;28;20466;-84
2021/09/10 06:39:29;;;;;;;5.00;4.50;;;24.10;73.60;;;;;;5100949;28;20455;-85
2021/09/10 06:41:57;;;;;;;5.60;5.03;;;24.20;73.40;;;;;;5100855;28;20844;-85
2021/09/10 06:44:24;;;;;;;7.47;5.37;;;24.20;73.00;;;;;;5100171;28;20455;-83
2021/09/10 06:46:51;;;;;;;6.00;5.17;;;24.30;72.60;;;;;;5099583;28;20486;-84
2021/09/10 06:49:17;;;;;;;8.30;4.60;;;24.40;73.20;;;;;;5099790;28;20451;-84
2021/09/10 06:51:46;;;;;;;7.23;4.40;;;24.40;73.20;;;;;;5101862;28;20452;-84
2021/09/10 06:54:12;;;;;;;8.67;4.40;;;24.40;72.80;;;;;;5101151;28;20452;-84
2021/09/10 06:56:39;;;;;;;5.93;4.20;;;24.40;73.00;;;;;;5100552;28;20475;-84
2021/09/10 06:59:06;;;;;;;7.40;4.20;;;24.40;72.80;;;;;;5100978;28;20445;-84
2021/09/10 07:01:35;;;;;;;7.30;4.00;;;24.40;72.20;;;;;;5099901;28;20969;-84
2021/09/10 07:04:01;;;;;;;4.50;3.63;;;24.40;72.40;;;;;;5100468;28;20478;-85
2021/09/10 07:06:30;;;;;;;5.30;3.87;;;24.40;72.60;;;;;;5099777;28;20452;-83
2021/09/10 07:08:58;;;;;;;6.33;4.03;;;24.40;72.60;;;;;;5099028;28;20514;-84
2021/09/10 07:11:25;;;;;;;8.60;4.30;;;24.40;72.80;;;;;;5098019;28;20455;-84
2021/09/10 07:13:51;;;;;;;11.23;4.40;;;24.40;73.00;;;;;;5098083;28;20448;-84
2021/09/10 07:16:18;;;;;;;8.20;3.70;;;24.40;73.00;;;;;;5098444;28;20475;-84
2021/09/10 07:18:45;;;;;;;6.30;3.63;;;24.40;72.80;;;;;;5098466;28;20481;-84
2021/09/10 07:21:12;;;;;;;12.30;5.07;;;24.30;72.60;;;;;;5097777;28;20439;-83
2021/09/10 07:23:38;;;;;;;11.13;4.17;;;24.30;72.50;;;;;;5097495;28;20452;-84
2021/09/10 07:26:07;;;;;;;12.83;4.43;;;24.30;72.60;;;;;;5096076;28;20781;-83
2021/09/10 07:28:34;;;;;;;10.63;3.47;;;24.30;72.20;;;;;;5094906;28;20480;-82
2021/09/10 07:31:01;;;;;;;6.67;3.83;;;24.30;72.60;;;;;;5096391;28;20459;-83
2021/09/10 07:33:28;;;;;;;10.93;3.50;;;24.30;72.50;;;;;;5098941;28;20452;-83
2021/09/10 07:35:55;;;;;;;16.40;3.80;;;24.30;72.20;;;;;;5098414;28;20432;-83
2021/09/10 07:38:22;;;;;;;9.53;4.03;;;24.30;72.20;;;;;;5098490;28;20428;-84
2021/09/10 07:40:49;;;;;;;9.23;3.80;;;24.20;72.60;;;;;;5099558;28;20446;-83
2021/09/10 07:43:17;;;;;;;9.30;3.60;;;24.20;72.80;;;;;;5098881;28;20919;-83
2021/09/10 07:45:44;;;;;;;14.00;3.83;;;24.10;73.40;;;;;;5098172;28;20959;-83
2021/09/10 07:48:11;;;;;;;10.20;3.50;;;24.00;74.50;;;;;;5098200;28;20570;-83
2021/09/10 07:50:37;;;;;;;7.40;3.30;;;24.00;75.20;;;;;;5098750;28;20954;-83
2021/09/10 07:53:04;;;;;;;13.80;3.70;;;23.90;75.80;;;;;;5099475;28;20432;-83
2021/09/10 07:55:31;;;;;;;5.73;3.80;;;23.90;77.10;;;;;;5098752;28;20415;-83
2021/09/10 07:57:58;;;;;;;8.60;3.30;;;23.90;77.60;;;;;;5098591;28;20460;-83
2021/09/10 08:00:26;;;;;;;9.00;2.97;;;24.00;77.80;;;;;;5098071;28;20440;-82
2021/09/10 08:02:53;;;;;;;4.60;3.17;;;24.00;77.10;;;;;;5099617;28;20466;-82
2021/09/10 08:05:20;;;;;;;8.57;3.60;;;24.10;76.70;;;;;;5101973;28;20436;-82
2021/09/10 08:07:47;;;;;;;9.30;2.87;;;24.20;76.00;;;;;;5101672;28;20491;-82
2021/09/10 08:10:15;;;;;;;8.30;3.20;;;24.30;75.00;;;;;;5102132;28;20458;-82
2021/09/10 08:12:42;;;;;;;5.17;3.10;;;24.40;74.60;;;;;;5101536;28;20459;-82
2021/09/10 08:15:10;;;;;;;8.70;3.50;;;24.50;73.90;;;;;;5101627;28;20432;-83
2021/09/10 08:17:39;;;;;;;9.00;3.13;;;24.70;73.60;;;;;;5102275;28;20456;-83
2021/09/10 08:20:07;;;;;;;6.47;3.17;;;24.80;72.40;;;;;;5102874;28;20811;-83
2021/09/10 08:22:35;;;;;;;8.30;3.03;;;24.90;72.00;;;;;;5102805;28;20427;-83
2021/09/10 08:25:03;;;;;;;10.73;3.40;;;25.10;70.90;;;;;;5101963;28;20481;-83
2021/09/10 08:27:30;;;;;;;4.93;2.60;;;25.20;69.80;;;;;;5103650;28;20487;-84
2021/09/10 08:29:57;;;;;;;6.93;2.83;;;25.30;68.60;;;;;;5104217;28;20459;-84
2021/09/10 08:32:25;;;;;;;10.30;3.20;;;25.40;67.90;;;;;;5103193;28;20415;-85
2021/09/10 08:34:54;;;;;;;5.13;2.73;;;25.50;67.50;;;;;;5103311;28;20902;-82
2021/09/10 08:37:20;;;;;;;5.80;2.53;;;25.70;67.10;;;;;;5102224;28;20460;-81
2021/09/10 08:39:47;;;;;;;9.23;3.00;;;25.80;65.70;;;;;;5104062;28;20443;-82
2021/09/10 08:42:17;;;;;;;3.80;3.00;;;25.90;65.30;;;;;;5102366;28;20432;-81
2021/09/10 08:44:44;;;;;;;6.83;2.77;;;26.00;64.70;;;;;;5102569;28;20977;-81
2021/09/10 08:47:13;;;;;;;3.37;2.87;;;26.00;64.90;;;;;;5103046;28;20459;-82
2021/09/10 08:49:41;;;;;;;7.60;2.83;;;26.00;63.90;;;;;;5103168;28;20487;-82
2021/09/10 08:52:11;;;;;;;10.00;2.77;;;26.20;64.20;;;;;;5104612;28;20443;-84
2021/09/10 08:54:38;;;;;;;13.27;3.10;;;26.30;63.80;;;;;;5103500;28;20428;-83
2021/09/10 08:57:05;;;;;;;9.87;3.30;;;26.40;64.00;;;;;;5101897;28;20475;-83
2021/09/10 08:59:32;;;;;;;5.13;2.97;;;26.60;64.00;;;;;;5103195;28;20513;-82
2021/09/10 09:02:00;;;;;;;5.90;2.80;;;26.50;62.60;;;;;;5102370;28;20992;-82
2021/09/10 09:04:31;;;;;;;6.53;2.97;;;26.50;62.10;;;;;;5102146;28;20941;-82
2021/09/10 09:06:58;;;;;;;9.03;3.13;;;26.50;63.30;;;;;;5101198;28;20464;-82
2021/09/10 09:09:37;;;;;;;4.17;2.70;;;26.40;63.30;;;;;;5101991;28;20474;-82
2021/09/10 09:12:15;;;;;;;10.43;2.90;;;26.30;63.70;;;;;;5102009;28;20436;-82
2021/09/10 09:14:47;;;;;;;5.60;2.97;;;26.20;63.10;;;;;;5102117;28;20485;-82
2021/09/10 09:17:26;;;;;;;5.17;2.90;;;26.00;64.70;;;;;;5102142;28;20872;-81
2021/09/10 09:20:19;;;;;;;4.23;3.13;;;25.70;65.60;;;;;;5103028;28;20436;-81
2021/09/10 09:22:58;;;;;;;3.53;3.10;;;25.50;67.00;;;;;;5100776;28;20433;-80
2021/09/10 09:25:28;;;;;;;11.00;3.57;;;25.20;69.40;;;;;;5099458;28;20442;-80
2021/09/10 09:27:55;;;;;;;2.70;2.50;;;25.00;70.40;;;;;;5098578;28;20490;-79
2021/09/10 09:30:37;;;;;;;5.87;3.63;;;24.90;71.10;;;;;;5100380;28;20434;-81
2021/09/10 09:33:04;;;;;;;7.33;3.50;;;24.90;72.40;;;;;;5101417;28;20451;-82
2021/09/10 09:35:31;;;;;;;9.90;3.70;;;24.90;73.70;;;;;;5101718;28;20459;-80
2021/09/10 09:37:58;;;;;;;5.00;3.77;;;24.80;73.20;;;;;;5099838;28;20853;-80
2021/09/10 09:40:32;;;;;;;8.97;3.87;;;24.80;73.40;;;;;;5100881;28;20433;-81
2021/09/10 09:42:59;;;;;;;5.70;3.00;;;24.70;73.90;;;;;;5101899;28;20432;-80
2021/09/10 09:45:26;;;;;;;3.83;3.50;;;24.70;74.00;;;;;;5101949;28;20788;-81
2021/09/10 09:47:53;;;;;;;6.53;3.83;;;24.70;74.30;;;;;;5101526;28;20491;-80
2021/09/10 09:50:22;;;;;;;10.70;4.53;;;24.70;74.50;;;;;;5103955;28;20460;-80
2021/09/10 09:52:51;;;;;;;8.07;4.00;;;24.80;74.50;;;;;;5101921;28;20487;-81
2021/09/10 09:55:19;;;;;;;9.37;4.10;;;24.80;74.10;;;;;;5100333;28;20462;-80
2021/09/10 09:57:47;;;;;;;6.43;3.80;;;24.90;74.30;;;;;;5099451;28;20510;-80
2021/09/10 10:00:15;;;;;;;6.40;3.60;;;25.00;75.00;;;;;;5099877;28;20432;-80
2021/09/10 10:02:42;;;;;;;5.30;3.67;;;25.10;75.10;;;;;;5101382;28;20440;-80
2021/09/10 10:05:10;;;;;;;3.67;3.37;;;25.20;75.30;;;;;;5099285;28;20435;-82
2021/09/10 10:07:42;;;;;;;5.93;3.50;;;25.30;73.90;;;;;;5100958;28;20468;-80
2021/09/10 10:10:13;;;;;;;7.20;4.40;;;25.50;72.70;;;;;;5099574;28;20439;-80
2021/09/10 10:12:42;;;;;;;9.67;4.03;;;25.50;71.60;;;;;;5097807;28;20443;-81
2021/09/10 10:15:25;;;;;;;5.70;3.90;;;25.50;71.50;;;;;;5097360;28;20535;-81
2021/09/10 10:17:53;;;;;;;5.93;3.90;;;25.70;71.30;;;;;;5097643;28;20825;-82
2021/09/10 10:20:49;;;;;;;9.27;4.33;;;25.80;69.80;;;;;;5097549;28;20444;-82
2021/09/10 10:23:55;;;;;;;5.03;3.80;;;26.00;68.80;;;;;;5096916;28;20954;-81
2021/09/10 10:26:37;;;;;;;4.20;3.53;;;26.20;67.50;;;;;;5098623;28;20472;-81
2021/09/10 10:29:08;;;;;;;5.53;3.67;;;26.40;66.90;;;;;;5097399;28;20456;-81
2021/09/10 10:32:11;;;;;;;4.63;3.10;;;26.40;66.60;;;;;;5098613;28;20444;-81
2021/09/10 10:35:19;;;;;;;4.47;4.07;;;26.40;66.00;;;;;;5087531;28;20946;-82
2021/09/10 10:37:48;;;;;;;4.70;4.20;;;26.50;66.20;;;;;;5098356;28;20464;-82
2021/09/10 10:40:35;;;;;;;4.43;3.50;;;26.40;66.10;;;;;;5099274;28;20454;-82
2021/09/10 10:43:05;;;;;;;4.00;3.37;;;26.30;66.30;;;;;;5097363;28;20855;-81
2021/09/10 10:46:13;;;;;;;3.50;2.90;;;26.20;66.80;;;;;;5097173;28;20443;-81
2021/09/10 10:48:51;;;;;;;5.70;3.63;;;26.10;66.80;;;;;;5097279;28;20471;-82
2021/09/10 10:51:43;;;;;;;4.57;3.70;;;26.00;66.60;;;;;;5098065;28;20475;-81
2021/09/10 10:54:11;;;;;;;4.90;3.47;;;26.10;67.40;;;;;;5097869;28;20878;-81
2021/09/10 10:56:51;;;;;;;7.37;4.20;;;26.50;66.50;;;;;;5098012;28;20819;-81
2021/09/10 10:59:35;;;;;;;5.60;3.50;;;26.90;64.90;;;;;;5099446;28;20436;-81
2021/09/10 11:02:28;;;;;;;3.60;3.30;;;27.20;63.10;;;;;;5099672;28;20915;-81
2021/09/10 11:05:01;;;;;;;6.10;3.87;;;27.40;61.70;;;;;;5099549;28;20444;-81
2021/09/10 11:07:31;;;;;;;7.50;4.33;;;27.60;61.10;;;;;;5096611;28;20468;-81
2021/09/10 11:09:59;;;;;;;5.20;3.77;;;27.80;60.60;;;;;;5096656;28;20463;-80
2021/09/10 11:12:26;;;;;;;5.30;4.07;;;28.40;59.20;;;;;;5096847;28;20428;-80
2021/09/10 11:14:53;;;;;;;3.10;2.90;;;29.10;58.00;;;;;;5098776;28;20416;-82
2021/09/10 11:17:26;;;;;;;6.93;3.83;;;29.80;56.00;;;;;;5098733;28;20478;-82
2021/09/10 11:19:56;;;;;;;6.30;3.03;;;30.40;54.30;;;;;;5098958;28;20424;-83
2021/09/10 11:22:23;;;;;;;4.77;3.40;;;30.70;53.00;;;;;;5099665;28;20435;-82
2021/09/10 11:25:03;;;;;;;5.50;3.83;;;30.80;52.00;;;;;;5098473;28;20936;-83
2021/09/10 11:27:32;;;;;;;5.40;4.23;;;30.70;52.00;;;;;;5100264;28;20477;-84
2021/09/10 11:30:06;;;;;;;4.80;3.57;;;30.50;52.10;;;;;;5100196;28;20558;-83
2021/09/10 11:32:33;;;;;;;4.13;3.73;;;30.20;52.20;;;;;;5099809;28;20442;-81
2021/09/10 11:35:02;;;;;;;5.20;3.67;;;30.00;52.50;;;;;;5100154;28;20904;-81
2021/09/10 11:37:31;;;;;;;9.00;4.07;;;29.60;53.00;;;;;;5102209;28;20463;-80
2021/09/10 11:40:00;;;;;;;4.00;3.40;;;29.20;54.10;;;;;;5103712;28;20446;-81
2021/09/10 11:42:34;;;;;;;6.73;3.20;;;28.80;55.40;;;;;;5103899;28;20440;-80
2021/09/10 11:45:06;;;;;;;8.00;4.10;;;28.40;56.40;;;;;;5104809;28;20432;-82
2021/09/10 11:47:34;;;;;;;5.03;4.10;;;28.10;58.00;;;;;;5105146;28;20475;-83
2021/09/10 11:50:04;;;;;;;6.53;4.27;;;27.70;59.90;;;;;;5102183;28;20479;-81
2021/09/10 11:52:33;;;;;;;4.97;3.57;;;27.30;62.30;;;;;;5102829;28;20432;-81
2021/09/10 11:55:09;;;;;;;5.33;4.47;;;27.00;63.80;;;;;;5102541;28;20439;-81
2021/09/10 11:57:36;;;;;;;3.60;3.30;;;26.70;65.30;;;;;;5103035;28;20464;-81
2021/09/10 12:00:04;;;;;;;17.10;5.50;;;26.30;66.90;;;;;;5101261;28;20435;-82
2021/09/10 12:02:33;;;;;;;10.40;3.87;;;25.80;71.50;;;;;;5102974;28;20432;-81
2021/09/10 12:05:01;;;;;;;4.47;3.43;;;25.30;73.40;;;;;;5100658;28;20439;-80
2021/09/10 12:07:28;;;;;;;7.63;2.80;;;25.10;74.20;;;;;;5103178;28;20483;-80
2021/09/10 12:09:56;;;;;;;8.43;3.67;;;24.80;75.60;;;;;;5101673;28;20474;-80
2021/09/10 12:12:28;;;;;;;4.70;2.43;;;24.70;76.60;;;;;;5101615;28;20437;-79
2021/09/10 12:14:57;;;;;;;3.03;2.00;;;24.70;77.40;;;;;;5100817;28;20413;-79
2021/09/10 12:17:33;;;;;;;4.30;1.63;;;24.90;77.10;;;;;;5099721;28;21069;-79
2021/09/10 12:20:06;;;;;;;3.13;1.30;;;25.60;75.80;;;;;;5101038;28;20481;-80
2021/09/10 12:22:53;;;;;;;4.30;1.43;;;26.90;72.80;;;;;;5099560;28;20511;-80
2021/09/10 12:25:31;;;;;;;1.40;1.30;;;28.80;66.40;;;;;;5102853;28;20881;-81
2021/09/10 12:28:15;;;;;;;0.87;0.57;;;30.30;59.40;;;;;;5102090;28;20478;-81
2021/09/10 12:30:43;;;;;;;1.13;0.90;;;31.30;55.50;;;;;;5101969;28;20951;-81
2021/09/10 12:33:11;;;;;;;1.27;1.13;;;31.80;52.90;;;;;;5101964;28;20432;-81
2021/09/10 12:35:39;;;;;;;1.50;1.33;;;32.10;52.00;;;;;;5101579;28;20421;-81
2021/09/10 12:38:08;;;;;;;1.50;1.10;;;32.40;51.30;;;;;;5101935;28;20894;-83
2021/09/10 12:40:37;;;;;;;1.73;1.07;;;32.70;50.10;;;;;;5105300;28;20426;-83
2021/09/10 12:43:07;;;;;;;1.10;1.00;;;33.10;49.40;;;;;;5106702;28;20439;-83
2021/09/10 12:45:34;;;;;;;1.37;1.20;;;33.80;47.80;;;;;;5106395;28;20863;-82
2021/09/10 12:48:01;;;;;;;3.00;1.50;;;34.20;46.50;;;;;;5102354;28;20467;-82
2021/09/10 12:50:28;;;;;;;3.03;1.50;;;34.50;44.70;;;;;;5109253;28;20840;-82
2021/09/10 12:52:55;;;;;;;3.13;1.70;;;34.70;44.60;;;;;;5106901;28;20435;-81
2021/09/10 12:55:22;;;;;;;2.60;2.00;;;35.00;44.70;;;;;;5101250;28;20464;-82